sensor_id;sensor_type;location;lat;lon;timestamp;pressure;altitude;pressure_sealevel;temperature;humidity
20424;BME280;10371;49.042;8.002;2023-04-26T00:00:30;100013.63;;;5.15;100.00
20424;BME280;10371;49.042;8.002;2023-04-26T00:01:30;100012.59;;;5.18;100.00
20424;BME280;10371;49.042;8.002;2023-04-26T00:02:31;100010.75;;;5.20;100.00
20424;BME280;10371;49.042;8.002;2023-04-26T00:03:31;100017.59;;;5.21;100.00
20424;BME280;10371;49.042;8.002;2023-04-26T00:04:31;100010.13;;;5.17;100.00
20424;BME280;10371;49.042;8.002;2023-04-26T00:05:32;100011.69;;;5.19;100.00
20424;BME280;10371;49.042;8.002;2023-04-26T00:06:34;100011.03;;;5.15;100.00
20424;BME280;10371;49.042;8.002;2023-04-26T00:07:34;100016.09;;;5.17;100.00
20424;BME280;10371;49.042;8.002;2023-04-26T00:08:36;100013.53;;;5.17;100.00
20424;BME280;10371;49.042;8.002;2023-04-26T00:09:37;100009.03;;;5.05;100.00
20424;BME280;10371;49.042;8.002;2023-04-26T00:10:40;100013.97;;;4.93;100.00
20424;BME280;10371;49.042;8.002;2023-04-26T00:11:40;100012.63;;;4.86;100.00
20424;BME280;10371;49.042;8.002;2023-04-26T00:12:41;100013.53;;;4.85;100.00
20424;BME280;10371;49.042;8.002;2023-04-26T00:13:41;100018.69;;;4.85;100.00
20424;BME280;10371;49.042;8.002;2023-04-26T00:14:41;100016.03;;;4.87;100.00
20424;BME280;10371;49.042;8.002;2023-04-26T00:15:42;100014.25;;;4.87;100.00
20424;BME280;10371;49.042;8.002;2023-04-26T00:16:42;100015.94;;;4.88;100.00
20424;BME280;10371;49.042;8.002;2023-04-26T00:17:42;100014.03;;;4.92;100.00
20424;BME280;10371;49.042;8.002;2023-04-26T00:18:43;100018.25;;;4.93;100.00
20424;BME280;10371;49.042;8.002;2023-04-26T00:19:45;100019.13;;;4.93;100.00
20424;BME280;10371;49.042;8.002;2023-04-26T00:20:46;100012.28;;;4.92;100.00
20424;BME280;10371;49.042;8.002;2023-04-26T00:21:46;100012.72;;;4.85;100.00
20424;BME280;10371;49.042;8.002;2023-04-26T00:22:46;100018.94;;;4.81;100.00
20424;BME280;10371;49.042;8.002;2023-04-26T00:23:47;100013.78;;;4.81;100.00
20424;BME280;10371;49.042;8.002;2023-04-26T00:24:47;100007.38;;;4.72;100.00
20424;BME280;10371;49.042;8.002;2023-04-26T00:25:47;100013.84;;;4.63;100.00
20424;BME280;10371;49.042;8.002;2023-04-26T00:26:47;100009.09;;;4.56;100.00
20424;BME280;10371;49.042;8.002;2023-04-26T00:27:48;100000.75;;;4.51;100.00
20424;BME280;10371;49.042;8.002;2023-04-26T00:28:49;100009.06;;;4.40;100.00
20424;BME280;10371;49.042;8.002;2023-04-26T00:29:49;99998.25;;;4.33;100.00
20424;BME280;10371;49.042;8.002;2023-04-26T00:30:49;100009.47;;;4.32;100.00
20424;BME280;10371;49.042;8.002;2023-04-26T00:31:50;100009.53;;;4.31;100.00
20424;BME280;10371;49.042;8.002;2023-04-26T00:32:50;100013.09;;;4.28;100.00
20424;BME280;10371;49.042;8.002;2023-04-26T00:33:50;100006.47;;;4.24;100.00
20424;BME280;10371;49.042;8.002;2023-04-26T00:34:51;100009.25;;;4.19;100.00
20424;BME280;10371;49.042;8.002;2023-04-26T00:35:51;100007.50;;;4.20;100.00
20424;BME280;10371;49.042;8.002;2023-04-26T00:36:51;100004.16;;;4.18;100.00
20424;BME280;10371;49.042;8.002;2023-04-26T00:37:52;100004.94;;;4.20;100.00
20424;BME280;10371;49.042;8.002;2023-04-26T00:38:52;100008.34;;;4.20;100.00
20424;BME280;10371;49.042;8.002;2023-04-26T00:39:52;100002.19;;;4.23;100.00
20424;BME280;10371;49.042;8.002;2023-04-26T00:40:52;99998.19;;;4.17;100.00
20424;BME280;10371;49.042;8.002;2023-04-26T00:41:53;100003.50;;;4.14;100.00
20424;BME280;10371;49.042;8.002;2023-04-26T00:42:59;100002.84;;;4.11;100.00
20424;BME280;10371;49.042;8.002;2023-04-26T00:43:59;100005.72;;;4.05;100.00
20424;BME280;10371;49.042;8.002;2023-04-26T00:45:00;100004.31;;;3.99;100.00
20424;BME280;10371;49.042;8.002;2023-04-26T00:46:00;100005.19;;;3.98;100.00
20424;BME280;10371;49.042;8.002;2023-04-26T00:47:00;100000.03;;;3.98;100.00
20424;BME280;10371;49.042;8.002;2023-04-26T00:48:01;100005.13;;;3.99;100.00
20424;BME280;10371;49.042;8.002;2023-04-26T00:49:02;100004.13;;;4.02;100.00
20424;BME280;10371;49.042;8.002;2023-04-26T00:50:03;100006.94;;;3.97;100.00
20424;BME280;10371;49.042;8.002;2023-04-26T00:51:06;100008.09;;;3.92;100.00
20424;BME280;10371;49.042;8.002;2023-04-26T00:52:06;100016.47;;;3.95;100.00
20424;BME280;10371;49.042;8.002;2023-04-26T00:53:07;100009.66;;;3.94;100.00
20424;BME280;10371;49.042;8.002;2023-04-26T00:54:08;100006.34;;;3.92;100.00
20424;BME280;10371;49.042;8.002;2023-04-26T00:55:09;100013.16;;;3.93;100.00
20424;BME280;10371;49.042;8.002;2023-04-26T00:56:11;100009.75;;;3.93;100.00
20424;BME280;10371;49.042;8.002;2023-04-26T00:57:11;100014.75;;;3.96;100.00
20424;BME280;10371;49.042;8.002;2023-04-26T00:58:11;100013.91;;;3.95;100.00
20424;BME280;10371;49.042;8.002;2023-04-26T00:59:12;100010.59;;;3.93;100.00
20424;BME280;10371;49.042;8.002;2023-04-26T01:00:12;100022.69;;;3.91;100.00
20424;BME280;10371;49.042;8.002;2023-04-26T01:01:13;100021.56;;;3.97;100.00
20424;BME280;10371;49.042;8.002;2023-04-26T01:02:13;100011.41;;;3.94;100.00
20424;BME280;10371;49.042;8.002;2023-04-26T01:03:15;100019.81;;;3.97;100.00
20424;BME280;10371;49.042;8.002;2023-04-26T01:04:16;100014.00;;;3.94;100.00
20424;BME280;10371;49.042;8.002;2023-04-26T01:05:16;100015.50;;;3.98;100.00
20424;BME280;10371;49.042;8.002;2023-04-26T01:06:17;100020.66;;;3.98;100.00
20424;BME280;10371;49.042;8.002;2023-04-26T01:07:17;100017.50;;;3.93;100.00
20424;BME280;10371;49.042;8.002;2023-04-26T01:08:17;100019.31;;;3.91;100.00
20424;BME280;10371;49.042;8.002;2023-04-26T01:09:19;100020.19;;;3.90;100.00
20424;BME280;10371;49.042;8.002;2023-04-26T01:10:20;100015.13;;;3.88;100.00
20424;BME280;10371;49.042;8.002;2023-04-26T01:11:21;100021.13;;;3.89;100.00
20424;BME280;10371;49.042;8.002;2023-04-26T01:12:22;100016.13;;;3.86;100.00
20424;BME280;10371;49.042;8.002;2023-04-26T01:13:23;100015.34;;;3.84;100.00
20424;BME280;10371;49.042;8.002;2023-04-26T01:14:24;100009.53;;;3.80;100.00
20424;BME280;10371;49.042;8.002;2023-04-26T01:15:25;100013.03;;;3.79;100.00
20424;BME280;10371;49.042;8.002;2023-04-26T01:16:27;100013.91;;;3.78;100.00
20424;BME280;10371;49.042;8.002;2023-04-26T01:17:28;100011.50;;;3.75;100.00
20424;BME280;10371;49.042;8.002;2023-04-26T01:18:28;100014.91;;;3.75;100.00
20424;BME280;10371;49.042;8.002;2023-04-26T01:19:28;100003.88;;;3.73;100.00
20424;BME280;10371;49.042;8.002;2023-04-26T01:20:29;100011.66;;;3.72;100.00
20424;BME280;10371;49.042;8.002;2023-04-26T01:21:29;100020.28;;;3.71;100.00
20424;BME280;10371;49.042;8.002;2023-04-26T01:22:33;100014.44;;;3.67;100.00
20424;BME280;10371;49.042;8.002;2023-04-26T01:23:33;100011.94;;;3.66;100.00
20424;BME280;10371;49.042;8.002;2023-04-26T01:24:34;100011.13;;;3.65;100.00
20424;BME280;10371;49.042;8.002;2023-04-26T01:25:35;100008.78;;;3.61;100.00
20424;BME280;10371;49.042;8.002;2023-04-26T01:26:36;100008.63;;;3.64;100.00
20424;BME280;10371;49.042;8.002;2023-04-26T01:27:43;100002.94;;;3.57;100.00
20424;BME280;10371;49.042;8.002;2023-04-26T01:28:43;100013.09;;;3.60;100.00
20424;BME280;10371;49.042;8.002;2023-04-26T01:29:45;100012.25;;;3.60;100.00
20424;BME280;10371;49.042;8.002;2023-04-26T01:30:46;99999.50;;;3.56;100.00
20424;BME280;10371;49.042;8.002;2023-04-26T01:31:47;100010.72;;;3.55;100.00
20424;BME280;10371;49.042;8.002;2023-04-26T01:32:48;100002.38;;;3.50;100.00
20424;BME280;10371;49.042;8.002;2023-04-26T01:33:48;100004.06;;;3.51;100.00
20424;BME280;10371;49.042;8.002;2023-04-26T01:34:48;100005.72;;;3.52;100.00
20424;BME280;10371;49.042;8.002;2023-04-26T01:35:48;100014.22;;;3.54;100.00
20424;BME280;10371;49.042;8.002;2023-04-26T01:36:49;100015.09;;;3.53;100.00
20424;BME280;10371;49.042;8.002;2023-04-26T01:37:49;100008.38;;;3.51;100.00
20424;BME280;10371;49.042;8.002;2023-04-26T01:38:50;100011.84;;;3.50;100.00
20424;BME280;10371;49.042;8.002;2023-04-26T01:39:50;100004.22;;;3.48;100.00
20424;BME280;10371;49.042;8.002;2023-04-26T01:40:55;100015.41;;;3.47;100.00
20424;BME280;10371;49.042;8.002;2023-04-26T01:41:56;100015.41;;;3.47;100.00
20424;BME280;10371;49.042;8.002;2023-04-26T01:42:57;100012.00;;;3.47;100.00
20424;BME280;10371;49.042;8.002;2023-04-26T01:43:58;100003.63;;;3.43;100.00
20424;BME280;10371;49.042;8.002;2023-04-26T01:44:58;100011.34;;;3.43;100.00
20424;BME280;10371;49.042;8.002;2023-04-26T01:45:58;100009.50;;;3.45;100.00
20424;BME280;10371;49.042;8.002;2023-04-26T01:46:59;100002.06;;;3.39;100.00
20424;BME280;10371;49.042;8.002;2023-04-26T01:47:59;100010.72;;;3.38;100.00
20424;BME280;10371;49.042;8.002;2023-04-26T01:48:59;100017.75;;;3.34;100.00
20424;BME280;10371;49.042;8.002;2023-04-26T01:49:59;100010.09;;;3.33;100.00
20424;BME280;10371;49.042;8.002;2023-04-26T01:51:00;100008.59;;;3.29;100.00
20424;BME280;10371;49.042;8.002;2023-04-26T01:52:00;100015.31;;;3.31;100.00
20424;BME280;10371;49.042;8.002;2023-04-26T01:53:01;100008.59;;;3.29;100.00
20424;BME280;10371;49.042;8.002;2023-04-26T01:54:01;100018.03;;;3.28;100.00
20424;BME280;10371;49.042;8.002;2023-04-26T01:55:02;100011.16;;;3.29;100.00
20424;BME280;10371;49.042;8.002;2023-04-26T01:56:02;100018.03;;;3.28;100.00
20424;BME280;10371;49.042;8.002;2023-04-26T01:57:03;100014.72;;;3.26;100.00
20424;BME280;10371;49.042;8.002;2023-04-26T01:58:03;100013.03;;;3.25;100.00
20424;BME280;10371;49.042;8.002;2023-04-26T01:59:03;100017.34;;;3.25;100.00
20424;BME280;10371;49.042;8.002;2023-04-26T02:00:04;100006.38;;;3.21;100.00
20424;BME280;10371;49.042;8.002;2023-04-26T02:01:08;100019.28;;;3.20;100.00
20424;BME280;10371;49.042;8.002;2023-04-26T02:02:08;100012.50;;;3.19;100.00
20424;BME280;10371;49.042;8.002;2023-04-26T02:03:09;100007.50;;;3.16;100.00
20424;BME280;10371;49.042;8.002;2023-04-26T02:04:09;100016.81;;;3.18;100.00
20424;BME280;10371;49.042;8.002;2023-04-26T02:05:10;100016.09;;;3.14;100.00
20424;BME280;10371;49.042;8.002;2023-04-26T02:06:11;100011.94;;;3.12;100.00
20424;BME280;10371;49.042;8.002;2023-04-26T02:07:11;100017.94;;;3.12;100.00
20424;BME280;10371;49.042;8.002;2023-04-26T02:08:11;100010.13;;;3.14;100.00
20424;BME280;10371;49.042;8.002;2023-04-26T02:09:11;100013.53;;;3.14;100.00
20424;BME280;10371;49.042;8.002;2023-04-26T02:10:12;100014.44;;;3.13;100.00
20424;BME280;10371;49.042;8.002;2023-04-26T02:11:12;100016.88;;;3.17;100.00
20424;BME280;10371;49.042;8.002;2023-04-26T02:12:12;100011.66;;;3.18;100.00
20424;BME280;10371;49.042;8.002;2023-04-26T02:13:13;100010.69;;;3.21;100.00
20424;BME280;10371;49.042;8.002;2023-04-26T02:14:14;100015.69;;;3.24;100.00
20424;BME280;10371;49.042;8.002;2023-04-26T02:15:14;100014.00;;;3.23;100.00
20424;BME280;10371;49.042;8.002;2023-04-26T02:16:15;100013.25;;;3.21;100.00
20424;BME280;10371;49.042;8.002;2023-04-26T02:17:16;100021.56;;;3.26;100.00
20424;BME280;10371;49.042;8.002;2023-04-26T02:18:16;100014.72;;;3.26;100.00
20424;BME280;10371;49.042;8.002;2023-04-26T02:19:17;100012.13;;;3.26;100.00
20424;BME280;10371;49.042;8.002;2023-04-26T02:20:18;100008.72;;;3.26;100.00
20424;BME280;10371;49.042;8.002;2023-04-26T02:21:18;100013.75;;;3.29;100.00
20424;BME280;10371;49.042;8.002;2023-04-26T02:22:19;100011.22;;;3.27;100.00
20424;BME280;10371;49.042;8.002;2023-04-26T02:23:20;100019.63;;;3.31;100.00
20424;BME280;10371;49.042;8.002;2023-04-26T02:24:20;100021.47;;;3.29;100.00
20424;BME280;10371;49.042;8.002;2023-04-26T02:25:22;100010.53;;;3.24;100.00
20424;BME280;10371;49.042;8.002;2023-04-26T02:26:22;100013.03;;;3.25;100.00
20424;BME280;10371;49.042;8.002;2023-04-26T02:27:22;100020.84;;;3.24;100.00
20424;BME280;10371;49.042;8.002;2023-04-26T02:28:23;100015.84;;;3.21;100.00
20424;BME280;10371;49.042;8.002;2023-04-26T02:29:23;100015.84;;;3.21;100.00
20424;BME280;10371;49.042;8.002;2023-04-26T02:30:23;100013.13;;;3.24;100.00
20424;BME280;10371;49.042;8.002;2023-04-26T02:31:23;100017.19;;;3.28;100.00
20424;BME280;10371;49.042;8.002;2023-04-26T02:32:24;100019.78;;;3.28;100.00
20424;BME280;10371;49.042;8.002;2023-04-26T02:33:24;100011.53;;;3.21;100.00
20424;BME280;10371;49.042;8.002;2023-04-26T02:34:24;100016.88;;;3.17;100.00
20424;BME280;10371;49.042;8.002;2023-04-26T02:35:25;100017.78;;;3.16;100.00
20424;BME280;10371;49.042;8.002;2023-04-26T02:36:25;100017.03;;;3.13;100.00
20424;BME280;10371;49.042;8.002;2023-04-26T02:37:26;100019.66;;;3.12;100.00
20424;BME280;10371;49.042;8.002;2023-04-26T02:38:26;100017.22;;;3.09;100.00
20424;BME280;10371;49.042;8.002;2023-04-26T02:39:26;100019.88;;;3.07;100.00
20424;BME280;10371;49.042;8.002;2023-04-26T02:40:26;100020.84;;;3.05;100.00
20424;BME280;10371;49.042;8.002;2023-04-26T02:41:27;100018.19;;;3.06;100.00
20424;BME280;10371;49.042;8.002;2023-04-26T02:42:27;100021.69;;;3.05;100.00
20424;BME280;10371;49.042;8.002;2023-04-26T02:43:27;100022.50;;;3.06;100.00
20424;BME280;10371;49.042;8.002;2023-04-26T02:44:28;100021.53;;;3.08;100.00
20424;BME280;10371;49.042;8.002;2023-04-26T02:45:29;100019.88;;;3.07;100.00
20424;BME280;10371;49.042;8.002;2023-04-26T02:46:30;100025.03;;;3.07;100.00
20424;BME280;10371;49.042;8.002;2023-04-26T02:47:30;100021.63;;;3.07;100.00
20424;BME280;10371;49.042;8.002;2023-04-26T02:48:30;100018.34;;;3.03;100.00
20424;BME280;10371;49.042;8.002;2023-04-26T02:49:30;100014.88;;;3.04;100.00
20424;BME280;10371;49.042;8.002;2023-04-26T02:50:31;100017.50;;;3.03;100.00
20424;BME280;10371;49.042;8.002;2023-04-26T02:51:31;100015.78;;;3.03;100.00
20424;BME280;10371;49.042;8.002;2023-04-26T02:52:33;100013.19;;;3.03;100.00
20424;BME280;10371;49.042;8.002;2023-04-26T02:53:33;100019.19;;;3.04;100.00
20424;BME280;10371;49.042;8.002;2023-04-26T02:54:33;100017.44;;;3.04;100.00
20424;BME280;10371;49.042;8.002;2023-04-26T02:55:33;100017.38;;;3.06;100.00
20424;BME280;10371;49.042;8.002;2023-04-26T02:56:34;100014.88;;;3.04;100.00
20424;BME280;10371;49.042;8.002;2023-04-26T02:57:34;100014.94;;;3.03;100.00
20424;BME280;10371;49.042;8.002;2023-04-26T02:58:34;100017.59;;;3.01;100.00
20424;BME280;10371;49.042;8.002;2023-04-26T02:59:35;100025.16;;;3.04;100.00
20424;BME280;10371;49.042;8.002;2023-04-26T03:00:35;100018.47;;;3.00;100.00
20424;BME280;10371;49.042;8.002;2023-04-26T03:01:36;100028.72;;;3.02;100.00
20424;BME280;10371;49.042;8.002;2023-04-26T03:02:36;100022.75;;;3.01;100.00
20424;BME280;10371;49.042;8.002;2023-04-26T03:03:36;100016.00;;;2.99;100.00
20424;BME280;10371;49.042;8.002;2023-04-26T03:04:36;100024.69;;;2.96;100.00
20424;BME280;10371;49.042;8.002;2023-04-26T03:05:37;100027.41;;;2.93;100.00
20424;BME280;10371;49.042;8.002;2023-04-26T03:06:37;100024.19;;;2.88;100.00
20424;BME280;10371;49.042;8.002;2023-04-26T03:07:37;100019.34;;;2.82;100.00
20424;BME280;10371;49.042;8.002;2023-04-26T03:08:38;100016.78;;;2.82;100.00
20424;BME280;10371;49.042;8.002;2023-04-26T03:09:38;100012.38;;;2.84;100.00
20424;BME280;10371;49.042;8.002;2023-04-26T03:10:38;100014.75;;;2.88;100.00
20424;BME280;10371;49.042;8.002;2023-04-26T03:11:38;100014.69;;;2.90;100.00
20424;BME280;10371;49.042;8.002;2023-04-26T03:12:39;100018.09;;;2.90;100.00
20424;BME280;10371;49.042;8.002;2023-04-26T03:13:39;100011.16;;;2.93;100.00
20424;BME280;10371;49.042;8.002;2023-04-26T03:14:40;100012.72;;;2.95;100.00
20424;BME280;10371;49.042;8.002;2023-04-26T03:15:44;100013.50;;;2.97;100.00
20424;BME280;10371;49.042;8.002;2023-04-26T03:16:45;100004.75;;;3.01;100.00
20424;BME280;10371;49.042;8.002;2023-04-26T03:17:47;100012.94;;;3.09;100.00
20424;BME280;10371;49.042;8.002;2023-04-26T03:18:47;100015.38;;;3.12;100.00
20424;BME280;10371;49.042;8.002;2023-04-26T03:19:48;100005.81;;;3.14;100.00
20424;BME280;10371;49.042;8.002;2023-04-26T03:20:48;100014.97;;;3.20;100.00
20424;BME280;10371;49.042;8.002;2023-04-26T03:21:49;100015.75;;;3.22;100.00
20424;BME280;10371;49.042;8.002;2023-04-26T03:22:49;100012.81;;;3.30;100.00
20424;BME280;10371;49.042;8.002;2023-04-26T03:23:49;100016.84;;;3.35;100.00
20424;BME280;10371;49.042;8.002;2023-04-26T03:24:50;100011.47;;;3.40;100.00
20424;BME280;10371;49.042;8.002;2023-04-26T03:25:50;100013.91;;;3.43;100.00
20424;BME280;10371;49.042;8.002;2023-04-26T03:26:50;100019.78;;;3.45;100.00
20424;BME280;10371;49.042;8.002;2023-04-26T03:27:51;100020.34;;;3.52;100.00
20424;BME280;10371;49.042;8.002;2023-04-26T03:28:51;100015.81;;;3.57;100.00
20424;BME280;10371;49.042;8.002;2023-04-26T03:29:52;100016.41;;;3.62;100.00
20424;BME280;10371;49.042;8.002;2023-04-26T03:30:52;100016.19;;;3.67;100.00
20424;BME280;10371;49.042;8.002;2023-04-26T03:31:52;100021.69;;;3.59;100.00
20424;BME280;10371;49.042;8.002;2023-04-26T03:32:52;100024.38;;;3.57;100.00
20424;BME280;10371;49.042;8.002;2023-04-26T03:33:53;100020.34;;;3.52;100.00
20424;BME280;10371;49.042;8.002;2023-04-26T03:34:53;100022.63;;;3.58;100.00
20424;BME280;10371;49.042;8.002;2023-04-26T03:35:54;100019.22;;;3.57;100.00
20424;BME280;10371;49.042;8.002;2023-04-26T03:36:54;100021.69;;;3.59;100.00
20424;BME280;10371;49.042;8.002;2023-04-26T03:37:55;100014.22;;;3.54;100.00
20424;BME280;10371;49.042;8.002;2023-04-26T03:38:56;100017.53;;;3.56;100.00
20424;BME280;10371;49.042;8.002;2023-04-26T03:39:56;100010.66;;;3.57;100.00
20424;BME280;10371;49.042;8.002;2023-04-26T03:40:56;100017.31;;;3.61;100.00
20424;BME280;10371;49.042;8.002;2023-04-26T03:41:57;100012.03;;;3.64;100.00
20424;BME280;10371;49.042;8.002;2023-04-26T03:42:57;100015.41;;;3.65;100.00
20424;BME280;10371;49.042;8.002;2023-04-26T03:43:57;100014.59;;;3.64;100.00
20424;BME280;10371;49.042;8.002;2023-04-26T03:44:57;100015.28;;;3.68;100.00
20424;BME280;10371;49.042;8.002;2023-04-26T03:45:58;100011.66;;;3.72;100.00
20424;BME280;10371;49.042;8.002;2023-04-26T03:46:58;100011.94;;;3.66;100.00
20424;BME280;10371;49.042;8.002;2023-04-26T03:47:59;100011.81;;;3.69;100.00
20424;BME280;10371;49.042;8.002;2023-04-26T03:48:59;100003.94;;;3.72;100.00
20424;BME280;10371;49.042;8.002;2023-04-26T03:49:59;100007.25;;;3.74;100.00
20424;BME280;10371;49.042;8.002;2023-04-26T03:51:00;100007.94;;;3.77;100.00
20424;BME280;10371;49.042;8.002;2023-04-26T03:52:01;100001.88;;;3.78;100.00
20424;BME280;10371;49.042;8.002;2023-04-26T03:53:01;99998.63;;;3.75;100.00
20424;BME280;10371;49.042;8.002;2023-04-26T03:54:02;100003.78;;;3.75;100.00
20424;BME280;10371;49.042;8.002;2023-04-26T03:55:02;100007.00;;;3.78;100.00
20424;BME280;10371;49.042;8.002;2023-04-26T03:56:02;99998.56;;;3.76;100.00
20424;BME280;10371;49.042;8.002;2023-04-26T03:57:03;99999.53;;;3.74;100.00
20424;BME280;10371;49.042;8.002;2023-04-26T03:58:03;99995.53;;;3.68;100.00
20424;BME280;10371;49.042;8.002;2023-04-26T03:59:06;100004.13;;;3.67;100.00
20424;BME280;10371;49.042;8.002;2023-04-26T04:00:09;100005.13;;;3.65;100.00
20424;BME280;10371;49.042;8.002;2023-04-26T04:01:11;100001.81;;;3.63;100.00
20424;BME280;10371;49.042;8.002;2023-04-26T04:02:11;100006.09;;;3.62;100.00
20424;BME280;10371;49.042;8.002;2023-04-26T04:03:11;100001.19;;;3.57;100.00
20424;BME280;10371;49.042;8.002;2023-04-26T04:04:11;100004.44;;;3.61;100.00
20424;BME280;10371;49.042;8.002;2023-04-26T04:05:12;100008.91;;;3.57;100.00
20424;BME280;10371;49.042;8.002;2023-04-26T04:06:12;100008.00;;;3.58;100.00
20424;BME280;10371;49.042;8.002;2023-04-26T04:07:12;100009.81;;;3.56;100.00
20424;BME280;10371;49.042;8.002;2023-04-26T04:08:14;100004.81;;;3.53;100.00
20424;BME280;10371;49.042;8.002;2023-04-26T04:09:14;100007.53;;;3.50;100.00
20424;BME280;10371;49.042;8.002;2023-04-26T04:10:14;100003.53;;;3.45;100.00
20424;BME280;10371;49.042;8.002;2023-04-26T04:11:15;100009.38;;;3.48;100.00
20424;BME280;10371;49.042;8.002;2023-04-26T04:12:15;100006.19;;;3.43;100.00
20424;BME280;10371;49.042;8.002;2023-04-26T04:13:16;100005.13;;;3.47;100.00
20424;BME280;10371;49.042;8.002;2023-04-26T04:14:16;100005.22;;;3.46;100.00
20424;BME280;10371;49.042;8.002;2023-04-26T04:15:18;100007.84;;;3.44;100.00
20424;BME280;10371;49.042;8.002;2023-04-26T04:16:19;100006.25;;;3.42;100.00
20424;BME280;10371;49.042;8.002;2023-04-26T04:17:19;100013.00;;;3.44;100.00
20424;BME280;10371;49.042;8.002;2023-04-26T04:18:19;100010.63;;;3.40;100.00
20424;BME280;10371;49.042;8.002;2023-04-26T04:19:20;100014.19;;;3.37;100.00
20424;BME280;10371;49.042;8.002;2023-04-26T04:20:20;100003.97;;;3.35;100.00
20424;BME280;10371;49.042;8.002;2023-04-26T04:21:20;100007.59;;;3.31;100.00
20424;BME280;10371;49.042;8.002;2023-04-26T04:22:21;100013.59;;;3.32;100.00
20424;BME280;10371;49.042;8.002;2023-04-26T04:23:21;100009.34;;;3.31;100.00
20424;BME280;10371;49.042;8.002;2023-04-26T04:24:21;100011.16;;;3.29;100.00
20424;BME280;10371;49.042;8.002;2023-04-26T04:25:22;100014.63;;;3.28;100.00
20424;BME280;10371;49.042;8.002;2023-04-26T04:26:23;100013.84;;;3.26;100.00
20424;BME280;10371;49.042;8.002;2023-04-26T04:27:25;100008.72;;;3.26;100.00
20424;BME280;10371;49.042;8.002;2023-04-26T04:28:25;100012.34;;;3.22;100.00
20424;BME280;10371;49.042;8.002;2023-04-26T04:29:26;100008.03;;;3.22;100.00
20424;BME280;10371;49.042;8.002;2023-04-26T04:30:27;100012.19;;;3.25;100.00
20424;BME280;10371;49.042;8.002;2023-04-26T04:31:28;100018.88;;;3.29;100.00
20424;BME280;10371;49.042;8.002;2023-04-26T04:32:30;100015.72;;;3.41;100.00
20424;BME280;10371;49.042;8.002;2023-04-26T04:33:31;100018.75;;;3.49;100.00
20424;BME280;10371;49.042;8.002;2023-04-26T04:34:35;100023.59;;;3.55;100.00
20424;BME280;10371;49.042;8.002;2023-04-26T04:35:35;100023.53;;;3.57;100.00
20424;BME280;10371;49.042;8.002;2023-04-26T04:36:35;100024.97;;;3.63;100.00
20424;BME280;10371;49.042;8.002;2023-04-26T04:37:37;100030.88;;;3.65;100.00
20424;BME280;10371;49.042;8.002;2023-04-26T04:38:38;100024.69;;;3.69;100.00
20424;BME280;10371;49.042;8.002;2023-04-26T04:39:38;100026.03;;;3.76;100.00
20424;BME280;10371;49.042;8.002;2023-04-26T04:40:39;100025.13;;;3.77;100.00
20424;BME280;10371;49.042;8.002;2023-04-26T04:41:39;100033.53;;;3.80;100.00
20424;BME280;10371;49.042;8.002;2023-04-26T04:42:46;100030.13;;;3.80;100.00
20424;BME280;10371;49.042;8.002;2023-04-26T04:43:46;100032.09;;;3.75;100.00
20424;BME280;10371;49.042;8.002;2023-04-26T04:44:47;100031.63;;;3.67;100.00
20424;BME280;10371;49.042;8.002;2023-04-26T04:45:47;100031.31;;;3.55;100.00
20424;BME280;10371;49.042;8.002;2023-04-26T04:46:48;100023.59;;;3.55;100.00
20424;BME280;10371;49.042;8.002;2023-04-26T04:47:48;100022.56;;;3.60;100.00
20424;BME280;10371;49.042;8.002;2023-04-26T04:48:48;100020.72;;;3.62;100.00
20424;BME280;10371;49.042;8.002;2023-04-26T04:49:49;100033.84;;;3.74;100.00
20424;BME280;10371;49.042;8.002;2023-04-26T04:50:49;100038.38;;;3.87;100.00
20424;BME280;10371;49.042;8.002;2023-04-26T04:51:50;100035.91;;;3.85;100.00
20424;BME280;10371;49.042;8.002;2023-04-26T04:52:50;100035.53;;;3.93;100.00
20424;BME280;10371;49.042;8.002;2023-04-26T04:53:50;100041.03;;;4.02;100.00
20424;BME280;10371;49.042;8.002;2023-04-26T04:54:51;100033.09;;;4.07;100.00
20424;BME280;10371;49.042;8.002;2023-04-26T04:55:51;100032.94;;;4.10;100.00
20424;BME280;10371;49.042;8.002;2023-04-26T04:56:52;100043.06;;;4.13;100.00
20424;BME280;10371;49.042;8.002;2023-04-26T04:57:52;100041.94;;;4.19;100.00
20424;BME280;10371;49.042;8.002;2023-04-26T04:58:52;100049.44;;;4.23;100.00
20424;BME280;10371;49.042;8.002;2023-04-26T04:59:52;100049.19;;;4.28;100.00
20424;BME280;10371;49.042;8.002;2023-04-26T05:00:53;100037.97;;;4.29;100.00
20424;BME280;10371;49.042;8.002;2023-04-26T05:01:54;100046.28;;;4.34;100.00
20424;BME280;10371;49.042;8.002;2023-04-26T05:02:55;100047.81;;;4.38;100.00
20424;BME280;10371;49.042;8.002;2023-04-26T05:03:55;100051.00;;;4.43;100.00
20424;BME280;10371;49.042;8.002;2023-04-26T05:04:56;100047.25;;;4.49;100.00
20424;BME280;10371;49.042;8.002;2023-04-26T05:05:56;100043.69;;;4.52;100.00
20424;BME280;10371;49.042;8.002;2023-04-26T05:06:56;100050.28;;;4.57;100.00
20424;BME280;10371;49.042;8.002;2023-04-26T05:07:57;100042.44;;;4.59;100.00
20424;BME280;10371;49.042;8.002;2023-04-26T05:08:58;100041.56;;;4.60;100.00
20424;BME280;10371;49.042;8.002;2023-04-26T05:09:59;100043.03;;;4.64;100.00
20424;BME280;10371;49.042;8.002;2023-04-26T05:10:59;100047.97;;;4.68;100.00
20424;BME280;10371;49.042;8.002;2023-04-26T05:12:00;100044.31;;;4.73;100.00
20424;BME280;10371;49.042;8.002;2023-04-26T05:13:00;100043.25;;;4.77;100.00
20424;BME280;10371;49.042;8.002;2023-04-26T05:14:00;100048.88;;;4.83;100.00
20424;BME280;10371;49.042;8.002;2023-04-26T05:15:01;100051.13;;;4.89;100.00
20424;BME280;10371;49.042;8.002;2023-04-26T05:16:01;100055.91;;;4.97;100.00
20424;BME280;10371;49.042;8.002;2023-04-26T05:17:01;100057.38;;;5.01;100.00